sensor_id;sensor_type;location;lat;lon;timestamp;P1;durP1;ratioP1;P2;durP2;ratioP2
17886;SDS011;9069;52.044;7.472;2023-05-23T00:00:12;4.55;;;3.55;;
17886;SDS011;9069;52.044;7.472;2023-05-23T00:02:41;4.55;;;4.07;;
17886;SDS011;9069;52.044;7.472;2023-05-23T00:05:08;6.90;;;4.15;;
17886;SDS011;9069;52.044;7.472;2023-05-23T00:07:35;4.75;;;3.80;;
17886;SDS011;9069;52.044;7.472;2023-05-23T00:10:02;5.35;;;3.78;;
17886;SDS011;9069;52.044;7.472;2023-05-23T00:12:30;5.90;;;3.70;;
17886;SDS011;9069;52.044;7.472;2023-05-23T00:14:56;7.00;;;4.15;;
17886;SDS011;9069;52.044;7.472;2023-05-23T00:17:23;6.57;;;3.75;;
17886;SDS011;9069;52.044;7.472;2023-05-23T00:19:53;5.95;;;4.57;;
17886;SDS011;9069;52.044;7.472;2023-05-23T00:22:21;6.40;;;4.78;;
17886;SDS011;9069;52.044;7.472;2023-05-23T00:24:48;6.40;;;3.78;;
17886;SDS011;9069;52.044;7.472;2023-05-23T00:27:14;6.38;;;4.10;;
17886;SDS011;9069;52.044;7.472;2023-05-23T00:29:41;7.30;;;4.80;;
17886;SDS011;9069;52.044;7.472;2023-05-23T00:32:08;6.50;;;4.18;;
17886;SDS011;9069;52.044;7.472;2023-05-23T00:34:35;8.00;;;5.25;;
17886;SDS011;9069;52.044;7.472;2023-05-23T00:37:03;5.82;;;4.38;;
17886;SDS011;9069;52.044;7.472;2023-05-23T00:39:30;9.52;;;4.93;;
17886;SDS011;9069;52.044;7.472;2023-05-23T00:41:57;7.35;;;4.97;;
17886;SDS011;9069;52.044;7.472;2023-05-23T00:44:24;6.90;;;5.05;;
17886;SDS011;9069;52.044;7.472;2023-05-23T00:46:52;6.53;;;4.88;;
17886;SDS011;9069;52.044;7.472;2023-05-23T00:49:21;5.82;;;4.72;;
17886;SDS011;9069;52.044;7.472;2023-05-23T00:51:49;6.13;;;5.03;;
17886;SDS011;9069;52.044;7.472;2023-05-23T00:54:18;5.95;;;4.65;;
17886;SDS011;9069;52.044;7.472;2023-05-23T00:56:49;7.47;;;4.93;;
17886;SDS011;9069;52.044;7.472;2023-05-23T00:59:16;6.05;;;4.40;;
17886;SDS011;9069;52.044;7.472;2023-05-23T01:01:43;7.22;;;4.32;;
17886;SDS011;9069;52.044;7.472;2023-05-23T01:04:12;9.20;;;4.28;;
17886;SDS011;9069;52.044;7.472;2023-05-23T01:06:39;5.97;;;4.70;;
17886;SDS011;9069;52.044;7.472;2023-05-23T01:09:06;5.88;;;3.95;;
17886;SDS011;9069;52.044;7.472;2023-05-23T01:11:38;8.35;;;4.63;;
17886;SDS011;9069;52.044;7.472;2023-05-23T01:14:18;5.85;;;4.45;;
17886;SDS011;9069;52.044;7.472;2023-05-23T01:16:51;7.57;;;5.20;;
17886;SDS011;9069;52.044;7.472;2023-05-23T01:22:15;7.78;;;5.18;;
17886;SDS011;9069;52.044;7.472;2023-05-23T01:25:16;11.25;;;4.93;;
17886;SDS011;9069;52.044;7.472;2023-05-23T01:28:02;8.93;;;5.90;;
17886;SDS011;9069;52.044;7.472;2023-05-23T01:30:38;8.50;;;5.45;;
17886;SDS011;9069;52.044;7.472;2023-05-23T01:33:07;8.05;;;5.57;;
17886;SDS011;9069;52.044;7.472;2023-05-23T01:35:34;9.68;;;6.60;;
17886;SDS011;9069;52.044;7.472;2023-05-23T01:38:02;7.53;;;5.85;;
17886;SDS011;9069;52.044;7.472;2023-05-23T01:40:29;9.05;;;6.15;;
17886;SDS011;9069;52.044;7.472;2023-05-23T01:42:56;10.27;;;6.50;;
17886;SDS011;9069;52.044;7.472;2023-05-23T01:45:24;9.63;;;6.40;;
17886;SDS011;9069;52.044;7.472;2023-05-23T01:47:53;10.10;;;7.03;;
17886;SDS011;9069;52.044;7.472;2023-05-23T01:50:22;10.85;;;6.75;;
17886;SDS011;9069;52.044;7.472;2023-05-23T01:52:49;9.90;;;6.90;;
17886;SDS011;9069;52.044;7.472;2023-05-23T01:55:17;10.07;;;7.13;;
17886;SDS011;9069;52.044;7.472;2023-05-23T01:57:50;10.88;;;6.22;;
17886;SDS011;9069;52.044;7.472;2023-05-23T02:00:20;10.27;;;7.40;;
17886;SDS011;9069;52.044;7.472;2023-05-23T02:02:47;12.35;;;7.65;;
17886;SDS011;9069;52.044;7.472;2023-05-23T02:05:15;10.00;;;7.10;;
17886;SDS011;9069;52.044;7.472;2023-05-23T02:07:43;11.43;;;6.68;;
17886;SDS011;9069;52.044;7.472;2023-05-23T02:10:11;15.00;;;8.15;;
17886;SDS011;9069;52.044;7.472;2023-05-23T02:12:38;12.68;;;8.57;;
17886;SDS011;9069;52.044;7.472;2023-05-23T02:15:04;19.42;;;9.38;;
17886;SDS011;9069;52.044;7.472;2023-05-23T02:17:32;13.52;;;8.80;;
17886;SDS011;9069;52.044;7.472;2023-05-23T02:19:59;15.35;;;8.40;;
17886;SDS011;9069;52.044;7.472;2023-05-23T02:22:26;14.85;;;8.23;;
17886;SDS011;9069;52.044;7.472;2023-05-23T02:24:52;15.07;;;8.25;;
17886;SDS011;9069;52.044;7.472;2023-05-23T02:27:19;11.85;;;7.72;;
17886;SDS011;9069;52.044;7.472;2023-05-23T02:29:46;12.82;;;8.18;;
17886;SDS011;9069;52.044;7.472;2023-05-23T02:32:13;19.88;;;8.63;;
17886;SDS011;9069;52.044;7.472;2023-05-23T02:34:39;15.52;;;8.02;;
17886;SDS011;9069;52.044;7.472;2023-05-23T02:37:06;16.42;;;8.45;;
17886;SDS011;9069;52.044;7.472;2023-05-23T02:39:35;12.02;;;7.25;;
17886;SDS011;9069;52.044;7.472;2023-05-23T02:42:02;12.10;;;6.95;;
17886;SDS011;9069;52.044;7.472;2023-05-23T02:44:30;13.32;;;7.63;;
17886;SDS011;9069;52.044;7.472;2023-05-23T02:46:57;11.75;;;6.40;;
17886;SDS011;9069;52.044;7.472;2023-05-23T02:49:24;9.57;;;6.43;;
17886;SDS011;9069;52.044;7.472;2023-05-23T02:51:51;10.93;;;6.18;;
17886;SDS011;9069;52.044;7.472;2023-05-23T02:54:18;10.15;;;5.93;;
17886;SDS011;9069;52.044;7.472;2023-05-23T02:56:45;9.35;;;5.68;;
17886;SDS011;9069;52.044;7.472;2023-05-23T02:59:12;8.20;;;4.85;;
17886;SDS011;9069;52.044;7.472;2023-05-23T03:01:39;7.88;;;5.05;;
17886;SDS011;9069;52.044;7.472;2023-05-23T03:04:06;6.75;;;4.90;;
17886;SDS011;9069;52.044;7.472;2023-05-23T03:06:32;7.05;;;5.05;;
17886;SDS011;9069;52.044;7.472;2023-05-23T03:09:01;7.30;;;4.47;;
17886;SDS011;9069;52.044;7.472;2023-05-23T03:11:29;6.78;;;4.45;;
17886;SDS011;9069;52.044;7.472;2023-05-23T03:13:57;6.15;;;4.35;;
17886;SDS011;9069;52.044;7.472;2023-05-23T03:16:24;8.63;;;5.40;;
17886;SDS011;9069;52.044;7.472;2023-05-23T03:18:51;6.10;;;4.60;;
17886;SDS011;9069;52.044;7.472;2023-05-23T03:21:18;9.20;;;4.70;;
17886;SDS011;9069;52.044;7.472;2023-05-23T03:23:45;7.97;;;5.15;;
17886;SDS011;9069;52.044;7.472;2023-05-23T03:26:11;7.70;;;5.10;;
17886;SDS011;9069;52.044;7.472;2023-05-23T03:28:38;5.72;;;4.63;;
17886;SDS011;9069;52.044;7.472;2023-05-23T03:31:05;5.85;;;4.55;;
17886;SDS011;9069;52.044;7.472;2023-05-23T03:33:32;7.05;;;4.40;;
17886;SDS011;9069;52.044;7.472;2023-05-23T03:35:58;6.68;;;4.43;;
17886;SDS011;9069;52.044;7.472;2023-05-23T03:38:26;7.68;;;4.30;;
17886;SDS011;9069;52.044;7.472;2023-05-23T03:40:53;7.60;;;4.63;;
17886;SDS011;9069;52.044;7.472;2023-05-23T03:43:19;6.30;;;4.53;;
17886;SDS011;9069;52.044;7.472;2023-05-23T03:45:46;7.05;;;4.75;;
17886;SDS011;9069;52.044;7.472;2023-05-23T03:48:16;8.07;;;5.38;;
17886;SDS011;9069;52.044;7.472;2023-05-23T03:50:43;7.82;;;5.15;;
17886;SDS011;9069;52.044;7.472;2023-05-23T03:53:10;6.50;;;4.95;;
17886;SDS011;9069;52.044;7.472;2023-05-23T03:55:37;8.50;;;5.70;;
17886;SDS011;9069;52.044;7.472;2023-05-23T03:58:05;8.25;;;5.07;;
17886;SDS011;9069;52.044;7.472;2023-05-23T04:00:32;9.85;;;6.03;;
17886;SDS011;9069;52.044;7.472;2023-05-23T04:03:01;8.77;;;5.53;;
17886;SDS011;9069;52.044;7.472;2023-05-23T04:05:28;7.93;;;5.43;;
17886;SDS011;9069;52.044;7.472;2023-05-23T04:07:55;8.48;;;5.93;;
17886;SDS011;9069;52.044;7.472;2023-05-23T04:10:26;7.82;;;5.68;;
17886;SDS011;9069;52.044;7.472;2023-05-23T04:12:53;10.77;;;6.70;;
17886;SDS011;9069;52.044;7.472;2023-05-23T04:15:21;8.98;;;5.50;;
17886;SDS011;9069;52.044;7.472;2023-05-23T04:17:55;9.55;;;5.63;;
17886;SDS011;9069;52.044;7.472;2023-05-23T04:20:24;13.88;;;6.65;;
17886;SDS011;9069;52.044;7.472;2023-05-23T04:22:51;11.25;;;6.65;;
17886;SDS011;9069;52.044;7.472;2023-05-23T04:25:18;8.43;;;5.80;;
17886;SDS011;9069;52.044;7.472;2023-05-23T04:28:00;10.15;;;6.45;;
17886;SDS011;9069;52.044;7.472;2023-05-23T04:30:27;11.57;;;6.32;;
17886;SDS011;9069;52.044;7.472;2023-05-23T04:32:56;9.35;;;6.00;;
17886;SDS011;9069;52.044;7.472;2023-05-23T04:35:27;9.48;;;6.10;;
17886;SDS011;9069;52.044;7.472;2023-05-23T04:37:54;11.90;;;6.28;;
17886;SDS011;9069;52.044;7.472;2023-05-23T04:40:23;10.50;;;6.05;;
17886;SDS011;9069;52.044;7.472;2023-05-23T04:43:09;11.75;;;6.28;;
17886;SDS011;9069;52.044;7.472;2023-05-23T04:45:55;12.15;;;6.10;;
17886;SDS011;9069;52.044;7.472;2023-05-23T04:48:38;11.43;;;6.65;;
17886;SDS011;9069;52.044;7.472;2023-05-23T04:51:05;10.02;;;6.00;;
17886;SDS011;9069;52.044;7.472;2023-05-23T04:53:37;9.65;;;6.35;;
17886;SDS011;9069;52.044;7.472;2023-05-23T04:56:07;10.57;;;6.05;;
17886;SDS011;9069;52.044;7.472;2023-05-23T04:58:36;12.32;;;5.72;;
17886;SDS011;9069;52.044;7.472;2023-05-23T05:01:07;11.50;;;6.03;;
17886;SDS011;9069;52.044;7.472;2023-05-23T05:03:35;9.23;;;5.90;;
17886;SDS011;9069;52.044;7.472;2023-05-23T05:06:02;10.05;;;6.10;;
17886;SDS011;9069;52.044;7.472;2023-05-23T05:08:29;12.48;;;5.85;;
17886;SDS011;9069;52.044;7.472;2023-05-23T05:10:57;14.07;;;6.40;;
17886;SDS011;9069;52.044;7.472;2023-05-23T05:13:23;10.05;;;5.80;;
17886;SDS011;9069;52.044;7.472;2023-05-23T05:15:53;10.27;;;6.05;;
17886;SDS011;9069;52.044;7.472;2023-05-23T05:18:21;9.88;;;5.45;;
17886;SDS011;9069;52.044;7.472;2023-05-23T05:20:48;11.07;;;4.88;;
17886;SDS011;9069;52.044;7.472;2023-05-23T05:23:15;9.77;;;4.65;;
17886;SDS011;9069;52.044;7.472;2023-05-23T05:25:42;10.07;;;5.35;;
17886;SDS011;9069;52.044;7.472;2023-05-23T05:28:10;6.43;;;4.32;;
17886;SDS011;9069;52.044;7.472;2023-05-23T05:30:42;4.47;;;3.47;;
17886;SDS011;9069;52.044;7.472;2023-05-23T05:33:11;6.15;;;3.03;;
17886;SDS011;9069;52.044;7.472;2023-05-23T05:35:38;5.55;;;3.28;;
17886;SDS011;9069;52.044;7.472;2023-05-23T05:38:05;6.32;;;2.88;;
17886;SDS011;9069;52.044;7.472;2023-05-23T05:40:33;7.57;;;2.90;;
17886;SDS011;9069;52.044;7.472;2023-05-23T05:43:01;5.88;;;3.08;;
17886;SDS011;9069;52.044;7.472;2023-05-23T05:45:27;5.13;;;2.80;;
17886;SDS011;9069;52.044;7.472;2023-05-23T05:47:54;6.10;;;3.42;;
17886;SDS011;9069;52.044;7.472;2023-05-23T05:50:23;3.30;;;2.47;;
17886;SDS011;9069;52.044;7.472;2023-05-23T05:52:50;3.92;;;2.60;;
17886;SDS011;9069;52.044;7.472;2023-05-23T05:55:16;4.68;;;2.88;;
17886;SDS011;9069;52.044;7.472;2023-05-23T05:57:47;5.45;;;2.88;;
17886;SDS011;9069;52.044;7.472;2023-05-23T06:00:14;5.45;;;2.60;;
17886;SDS011;9069;52.044;7.472;2023-05-23T06:02:44;5.28;;;2.83;;
17886;SDS011;9069;52.044;7.472;2023-05-23T06:05:39;5.60;;;2.75;;
17886;SDS011;9069;52.044;7.472;2023-05-23T06:08:05;3.20;;;2.60;;
17886;SDS011;9069;52.044;7.472;2023-05-23T06:10:33;7.53;;;3.05;;
17886;SDS011;9069;52.044;7.472;2023-05-23T06:13:00;4.82;;;2.92;;
17886;SDS011;9069;52.044;7.472;2023-05-23T06:15:28;5.85;;;2.95;;
17886;SDS011;9069;52.044;7.472;2023-05-23T06:17:55;3.92;;;2.58;;
17886;SDS011;9069;52.044;7.472;2023-05-23T06:20:23;5.13;;;3.08;;
17886;SDS011;9069;52.044;7.472;2023-05-23T06:22:50;4.20;;;2.88;;
17886;SDS011;9069;52.044;7.472;2023-05-23T06:25:17;3.85;;;2.25;;
17886;SDS011;9069;52.044;7.472;2023-05-23T06:27:45;3.28;;;2.33;;
17886;SDS011;9069;52.044;7.472;2023-05-23T06:30:12;6.10;;;2.40;;
17886;SDS011;9069;52.044;7.472;2023-05-23T06:32:39;4.05;;;2.15;;
17886;SDS011;9069;52.044;7.472;2023-05-23T06:35:07;3.55;;;1.98;;
17886;SDS011;9069;52.044;7.472;2023-05-23T06:37:34;3.13;;;2.15;;
17886;SDS011;9069;52.044;7.472;2023-05-23T06:40:00;3.38;;;2.35;;
17886;SDS011;9069;52.044;7.472;2023-05-23T06:42:27;5.93;;;2.15;;
17886;SDS011;9069;52.044;7.472;2023-05-23T06:45:12;4.50;;;1.90;;
17886;SDS011;9069;52.044;7.472;2023-05-23T06:47:42;3.78;;;2.17;;
17886;SDS011;9069;52.044;7.472;2023-05-23T06:50:10;4.45;;;2.28;;
17886;SDS011;9069;52.044;7.472;2023-05-23T06:52:37;4.72;;;2.67;;
17886;SDS011;9069;52.044;7.472;2023-05-23T06:55:04;5.28;;;2.72;;
17886;SDS011;9069;52.044;7.472;2023-05-23T06:57:31;4.10;;;2.38;;
17886;SDS011;9069;52.044;7.472;2023-05-23T06:59:58;5.47;;;2.47;;
17886;SDS011;9069;52.044;7.472;2023-05-23T07:02:25;3.25;;;2.35;;
17886;SDS011;9069;52.044;7.472;2023-05-23T07:04:52;5.10;;;2.33;;
17886;SDS011;9069;52.044;7.472;2023-05-23T07:07:39;4.20;;;2.53;;
17886;SDS011;9069;52.044;7.472;2023-05-23T07:10:06;7.60;;;2.45;;
17886;SDS011;9069;52.044;7.472;2023-05-23T07:12:35;6.15;;;2.50;;
17886;SDS011;9069;52.044;7.472;2023-05-23T07:15:02;3.80;;;2.65;;
17886;SDS011;9069;52.044;7.472;2023-05-23T07:17:30;3.20;;;2.42;;
17886;SDS011;9069;52.044;7.472;2023-05-23T07:19:58;4.15;;;2.25;;
17886;SDS011;9069;52.044;7.472;2023-05-23T07:22:25;5.80;;;2.70;;
17886;SDS011;9069;52.044;7.472;2023-05-23T07:24:52;3.78;;;2.35;;
17886;SDS011;9069;52.044;7.472;2023-05-23T07:27:23;4.05;;;2.40;;
17886;SDS011;9069;52.044;7.472;2023-05-23T07:29:49;3.78;;;2.45;;
17886;SDS011;9069;52.044;7.472;2023-05-23T07:32:16;4.78;;;2.63;;
17886;SDS011;9069;52.044;7.472;2023-05-23T07:34:44;5.63;;;2.60;;
17886;SDS011;9069;52.044;7.472;2023-05-23T07:37:11;6.28;;;2.78;;
17886;SDS011;9069;52.044;7.472;2023-05-23T07:39:42;5.75;;;2.78;;
17886;SDS011;9069;52.044;7.472;2023-05-23T07:42:08;7.15;;;2.53;;
17886;SDS011;9069;52.044;7.472;2023-05-23T07:44:36;8.88;;;2.70;;
17886;SDS011;9069;52.044;7.472;2023-05-23T07:47:04;6.28;;;2.53;;
17886;SDS011;9069;52.044;7.472;2023-05-23T07:49:30;3.35;;;2.20;;
17886;SDS011;9069;52.044;7.472;2023-05-23T07:51:57;4.85;;;2.40;;
17886;SDS011;9069;52.044;7.472;2023-05-23T07:54:24;6.55;;;2.67;;
17886;SDS011;9069;52.044;7.472;2023-05-23T07:56:55;4.40;;;2.08;;
17886;SDS011;9069;52.044;7.472;2023-05-23T07:59:23;5.35;;;2.08;;
17886;SDS011;9069;52.044;7.472;2023-05-23T08:01:50;3.05;;;2.20;;
17886;SDS011;9069;52.044;7.472;2023-05-23T08:04:20;7.65;;;2.38;;
17886;SDS011;9069;52.044;7.472;2023-05-23T08:06:50;5.70;;;2.80;;
17886;SDS011;9069;52.044;7.472;2023-05-23T08:09:37;5.13;;;2.25;;
17886;SDS011;9069;52.044;7.472;2023-05-23T08:12:11;5.55;;;2.65;;
17886;SDS011;9069;52.044;7.472;2023-05-23T08:14:38;6.18;;;2.75;;
17886;SDS011;9069;52.044;7.472;2023-05-23T08:17:27;3.88;;;2.33;;
17886;SDS011;9069;52.044;7.472;2023-05-23T08:19:55;4.25;;;2.55;;
17886;SDS011;9069;52.044;7.472;2023-05-23T08:22:22;6.88;;;2.72;;
17886;SDS011;9069;52.044;7.472;2023-05-23T08:24:49;5.15;;;2.20;;
17886;SDS011;9069;52.044;7.472;2023-05-23T08:27:16;5.35;;;2.65;;
17886;SDS011;9069;52.044;7.472;2023-05-23T08:29:47;8.80;;;2.83;;
17886;SDS011;9069;52.044;7.472;2023-05-23T08:32:14;4.30;;;2.65;;
17886;SDS011;9069;52.044;7.472;2023-05-23T08:34:42;7.03;;;2.47;;
17886;SDS011;9069;52.044;7.472;2023-05-23T08:37:09;6.25;;;3.00;;
17886;SDS011;9069;52.044;7.472;2023-05-23T08:39:36;6.20;;;3.22;;
17886;SDS011;9069;52.044;7.472;2023-05-23T08:42:25;6.05;;;2.85;;
17886;SDS011;9069;52.044;7.472;2023-05-23T08:44:52;12.60;;;2.83;;
17886;SDS011;9069;52.044;7.472;2023-05-23T08:47:20;5.47;;;3.35;;
17886;SDS011;9069;52.044;7.472;2023-05-23T08:49:58;5.13;;;3.17;;
17886;SDS011;9069;52.044;7.472;2023-05-23T08:52:27;10.93;;;3.00;;
17886;SDS011;9069;52.044;7.472;2023-05-23T08:54:59;8.38;;;3.25;;
17886;SDS011;9069;52.044;7.472;2023-05-23T08:57:27;9.75;;;3.53;;
17886;SDS011;9069;52.044;7.472;2023-05-23T09:00:02;7.80;;;3.47;;
17886;SDS011;9069;52.044;7.472;2023-05-23T09:02:36;16.63;;;4.25;;
17886;SDS011;9069;52.044;7.472;2023-05-23T09:05:17;7.30;;;3.40;;
17886;SDS011;9069;52.044;7.472;2023-05-23T09:07:45;9.38;;;3.65;;
17886;SDS011;9069;52.044;7.472;2023-05-23T09:10:13;8.45;;;3.55;;
17886;SDS011;9069;52.044;7.472;2023-05-23T09:12:45;11.98;;;3.30;;
17886;SDS011;9069;52.044;7.472;2023-05-23T09:15:12;8.45;;;3.25;;
17886;SDS011;9069;52.044;7.472;2023-05-23T09:17:40;5.75;;;3.15;;
17886;SDS011;9069;52.044;7.472;2023-05-23T09:20:12;11.68;;;3.17;;
17886;SDS011;9069;52.044;7.472;2023-05-23T09:22:47;8.52;;;3.00;;
17886;SDS011;9069;52.044;7.472;2023-05-23T09:25:16;4.88;;;2.47;;
17886;SDS011;9069;52.044;7.472;2023-05-23T09:27:44;8.48;;;2.80;;
17886;SDS011;9069;52.044;7.472;2023-05-23T09:30:15;7.65;;;2.88;;
17886;SDS011;9069;52.044;7.472;2023-05-23T09:32:56;8.27;;;2.90;;
17886;SDS011;9069;52.044;7.472;2023-05-23T09:35:29;8.57;;;2.97;;
17886;SDS011;9069;52.044;7.472;2023-05-23T09:37:56;6.75;;;2.53;;
17886;SDS011;9069;52.044;7.472;2023-05-23T09:40:29;8.50;;;2.60;;
17886;SDS011;9069;52.044;7.472;2023-05-23T09:43:02;4.90;;;2.53;;
17886;SDS011;9069;52.044;7.472;2023-05-23T09:45:30;8.80;;;2.72;;
17886;SDS011;9069;52.044;7.472;2023-05-23T09:47:59;7.90;;;2.63;;
17886;SDS011;9069;52.044;7.472;2023-05-23T09:50:31;6.90;;;2.47;;
17886;SDS011;9069;52.044;7.472;2023-05-23T09:53:00;7.82;;;2.97;;
17886;SDS011;9069;52.044;7.472;2023-05-23T09:55:27;7.53;;;2.92;;
17886;SDS011;9069;52.044;7.472;2023-05-23T09:57:53;7.75;;;2.80;;
17886;SDS011;9069;52.044;7.472;2023-05-23T10:00:22;9.88;;;2.95;;
17886;SDS011;9069;52.044;7.472;2023-05-23T10:02:53;7.40;;;2.60;;
17886;SDS011;9069;52.044;7.472;2023-05-23T10:05:35;10.13;;;2.45;;
17886;SDS011;9069;52.044;7.472;2023-05-23T10:08:17;6.75;;;2.75;;
17886;SDS011;9069;52.044;7.472;2023-05-23T10:13:40;12.02;;;2.90;;
17886;SDS011;9069;52.044;7.472;2023-05-23T10:16:14;11.95;;;3.08;;
17886;SDS011;9069;52.044;7.472;2023-05-23T10:19:06;11.73;;;2.50;;
17886;SDS011;9069;52.044;7.472;2023-05-23T10:21:39;9.90;;;2.60;;
17886;SDS011;9069;52.044;7.472;2023-05-23T10:24:12;8.15;;;2.88;;
17886;SDS011;9069;52.044;7.472;2023-05-23T10:26:39;13.45;;;3.08;;
17886;SDS011;9069;52.044;7.472;2023-05-23T10:29:06;9.52;;;2.80;;
17886;SDS011;9069;52.044;7.472;2023-05-23T10:31:33;10.93;;;2.80;;
17886;SDS011;9069;52.044;7.472;2023-05-23T10:34:20;12.00;;;3.05;;
17886;SDS011;9069;52.044;7.472;2023-05-23T10:37:07;8.45;;;2.60;;
17886;SDS011;9069;52.044;7.472;2023-05-23T10:45:15;11.50;;;2.25;;
17886;SDS011;9069;52.044;7.472;2023-05-23T10:47:47;9.57;;;2.47;;
17886;SDS011;9069;52.044;7.472;2023-05-23T10:50:28;11.50;;;2.78;;
17886;SDS011;9069;52.044;7.472;2023-05-23T10:53:01;12.18;;;2.95;;
17886;SDS011;9069;52.044;7.472;2023-05-23T10:55:33;14.95;;;3.10;;
17886;SDS011;9069;52.044;7.472;2023-05-23T10:58:08;10.68;;;2.63;;
17886;SDS011;9069;52.044;7.472;2023-05-23T11:00:37;8.98;;;2.70;;
17886;SDS011;9069;52.044;7.472;2023-05-23T11:03:04;8.63;;;2.28;;
17886;SDS011;9069;52.044;7.472;2023-05-23T11:05:34;11.10;;;2.70;;
17886;SDS011;9069;52.044;7.472;2023-05-23T11:14:12;8.88;;;2.90;;
17886;SDS011;9069;52.044;7.472;2023-05-23T11:21:48;7.68;;;2.78;;
17886;SDS011;9069;52.044;7.472;2023-05-23T11:24:17;9.43;;;2.45;;
17886;SDS011;9069;52.044;7.472;2023-05-23T11:26:59;11.80;;;3.00;;
17886;SDS011;9069;52.044;7.472;2023-05-23T11:29:26;12.68;;;2.90;;
17886;SDS011;9069;52.044;7.472;2023-05-23T11:31:56;9.35;;;2.90;;
17886;SDS011;9069;52.044;7.472;2023-05-23T11:34:26;7.05;;;2.70;;
17886;SDS011;9069;52.044;7.472;2023-05-23T11:36:53;9.75;;;2.72;;
17886;SDS011;9069;52.044;7.472;2023-05-23T11:39:21;15.93;;;3.22;;
17886;SDS011;9069;52.044;7.472;2023-05-23T11:41:58;9.65;;;2.70;;
17886;SDS011;9069;52.044;7.472;2023-05-23T11:44:29;10.60;;;3.00;;
17886;SDS011;9069;52.044;7.472;2023-05-23T11:47:02;8.32;;;2.90;;
17886;SDS011;9069;52.044;7.472;2023-05-23T11:49:33;7.68;;;2.50;;
17886;SDS011;9069;52.044;7.472;2023-05-23T11:52:01;7.28;;;2.40;;
17886;SDS011;9069;52.044;7.472;2023-05-23T11:54:28;9.60;;;2.58;;
17886;SDS011;9069;52.044;7.472;2023-05-23T11:56:56;11.85;;;2.75;;
17886;SDS011;9069;52.044;7.472;2023-05-23T11:59:23;11.25;;;3.00;;
17886;SDS011;9069;52.044;7.472;2023-05-23T12:01:51;9.40;;;2.25;;
17886;SDS011;9069;52.044;7.472;2023-05-23T12:04:18;8.63;;;2.80;;
17886;SDS011;9069;52.044;7.472;2023-05-23T12:06:46;8.98;;;2.97;;
17886;SDS011;9069;52.044;7.472;2023-05-23T12:09:14;7.43;;;2.50;;
17886;SDS011;9069;52.044;7.472;2023-05-23T12:11:42;10.48;;;2.60;;
17886;SDS011;9069;52.044;7.472;2023-05-23T12:14:13;6.85;;;2.60;;
17886;SDS011;9069;52.044;7.472;2023-05-23T12:16:44;10.10;;;3.05;;
17886;SDS011;9069;52.044;7.472;2023-05-23T12:19:12;6.80;;;2.67;;
17886;SDS011;9069;52.044;7.472;2023-05-23T12:24:13;10.77;;;2.40;;
17886;SDS011;9069;52.044;7.472;2023-05-23T12:26:50;7.63;;;2.60;;
17886;SDS011;9069;52.044;7.472;2023-05-23T12:29:21;7.03;;;2.53;;
17886;SDS011;9069;52.044;7.472;2023-05-23T12:32:01;11.15;;;2.50;;
17886;SDS011;9069;52.044;7.472;2023-05-23T12:34:29;10.93;;;3.10;;
17886;SDS011;9069;52.044;7.472;2023-05-23T12:36:56;9.95;;;2.80;;
17886;SDS011;9069;52.044;7.472;2023-05-23T12:39:36;12.75;;;3.03;;
17886;SDS011;9069;52.044;7.472;2023-05-23T12:42:06;10.90;;;3.08;;
17886;SDS011;9069;52.044;7.472;2023-05-23T12:44:34;6.10;;;2.40;;
17886;SDS011;9069;52.044;7.472;2023-05-23T12:47:02;8.07;;;2.22;;
17886;SDS011;9069;52.044;7.472;2023-05-23T12:49:29;13.43;;;2.60;;
17886;SDS011;9069;52.044;7.472;2023-05-23T12:51:56;9.75;;;3.00;;
17886;SDS011;9069;52.044;7.472;2023-05-23T12:54:23;9.07;;;2.50;;
17886;SDS011;9069;52.044;7.472;2023-05-23T12:56:50;8.85;;;2.97;;
17886;SDS011;9069;52.044;7.472;2023-05-23T12:59:16;9.70;;;2.38;;
17886;SDS011;9069;52.044;7.472;2023-05-23T13:01:43;5.10;;;2.25;;
17886;SDS011;9069;52.044;7.472;2023-05-23T13:04:10;6.07;;;2.42;;
17886;SDS011;9069;52.044;7.472;2023-05-23T13:06:37;10.45;;;2.05;;
17886;SDS011;9069;52.044;7.472;2023-05-23T13:09:04;8.65;;;2.70;;
17886;SDS011;9069;52.044;7.472;2023-05-23T13:11:30;8.00;;;2.60;;
17886;SDS011;9069;52.044;7.472;2023-05-23T13:13:57;5.93;;;2.25;;
17886;SDS011;9069;52.044;7.472;2023-05-23T13:16:24;8.98;;;2.50;;
17886;SDS011;9069;52.044;7.472;2023-05-23T13:18:51;10.43;;;2.45;;
17886;SDS011;9069;52.044;7.472;2023-05-23T13:21:18;8.05;;;2.25;;
17886;SDS011;9069;52.044;7.472;2023-05-23T13:23:44;7.53;;;2.55;;
17886;SDS011;9069;52.044;7.472;2023-05-23T13:26:11;6.95;;;2.47;;
17886;SDS011;9069;52.044;7.472;2023-05-23T13:28:39;5.55;;;2.22;;
17886;SDS011;9069;52.044;7.472;2023-05-23T13:31:06;7.47;;;2.35;;
17886;SDS011;9069;52.044;7.472;2023-05-23T13:33:33;5.45;;;2.13;;
17886;SDS011;9069;52.044;7.472;2023-05-23T13:36:00;6.20;;;2.53;;
17886;SDS011;9069;52.044;7.472;2023-05-23T13:38:27;8.35;;;2.70;;
17886;SDS011;9069;52.044;7.472;2023-05-23T13:40:55;8.07;;;2.53;;
17886;SDS011;9069;52.044;7.472;2023-05-23T13:43:22;10.65;;;2.67;;
17886;SDS011;9069;52.044;7.472;2023-05-23T13:45:49;8.27;;;2.60;;
17886;SDS011;9069;52.044;7.472;2023-05-23T13:48:16;8.27;;;2.28;;
17886;SDS011;9069;52.044;7.472;2023-05-23T13:50:43;7.75;;;2.40;;
17886;SDS011;9069;52.044;7.472;2023-05-23T13:53:10;7.50;;;2.50;;
17886;SDS011;9069;52.044;7.472;2023-05-23T13:55:41;6.75;;;2.30;;
17886;SDS011;9069;52.044;7.472;2023-05-23T13:58:10;5.70;;;2.20;;
17886;SDS011;9069;52.044;7.472;2023-05-23T14:00:38;6.68;;;1.88;;
17886;SDS011;9069;52.044;7.472;2023-05-23T14:03:05;7.32;;;2.17;;
17886;SDS011;9069;52.044;7.472;2023-05-23T14:05:33;15.07;;;2.47;;
17886;SDS011;9069;52.044;7.472;2023-05-23T14:08:01;8.82;;;2.40;;
17886;SDS011;9069;52.044;7.472;2023-05-23T14:10:29;8.15;;;1.70;;
17886;SDS011;9069;52.044;7.472;2023-05-23T14:12:58;6.60;;;2.20;;
17886;SDS011;9069;52.044;7.472;2023-05-23T14:15:25;7.28;;;2.35;;
17886;SDS011;9069;52.044;7.472;2023-05-23T14:17:52;6.15;;;1.98;;
17886;SDS011;9069;52.044;7.472;2023-05-23T14:20:21;7.15;;;2.13;;
17886;SDS011;9069;52.044;7.472;2023-05-23T14:22:48;10.02;;;2.53;;
17886;SDS011;9069;52.044;7.472;2023-05-23T14:25:16;8.50;;;2.15;;
17886;SDS011;9069;52.044;7.472;2023-05-23T14:27:43;9.98;;;2.15;;
17886;SDS011;9069;52.044;7.472;2023-05-23T14:30:10;7.13;;;2.22;;
17886;SDS011;9069;52.044;7.472;2023-05-23T14:32:37;4.25;;;1.90;;
17886;SDS011;9069;52.044;7.472;2023-05-23T14:35:05;10.80;;;1.85;;
17886;SDS011;9069;52.044;7.472;2023-05-23T14:37:32;7.35;;;2.53;;
17886;SDS011;9069;52.044;7.472;2023-05-23T14:39:59;6.40;;;2.10;;
17886;SDS011;9069;52.044;7.472;2023-05-23T14:42:26;6.13;;;1.90;;
17886;SDS011;9069;52.044;7.472;2023-05-23T14:44:53;10.48;;;1.98;;
17886;SDS011;9069;52.044;7.472;2023-05-23T14:47:20;9.77;;;2.03;;
17886;SDS011;9069;52.044;7.472;2023-05-23T14:49:46;10.32;;;2.00;;
17886;SDS011;9069;52.044;7.472;2023-05-23T14:52:13;4.90;;;2.17;;
17886;SDS011;9069;52.044;7.472;2023-05-23T14:54:40;13.00;;;2.53;;
17886;SDS011;9069;52.044;7.472;2023-05-23T14:57:08;6.32;;;1.83;;
17886;SDS011;9069;52.044;7.472;2023-05-23T14:59:35;6.00;;;1.70;;
17886;SDS011;9069;52.044;7.472;2023-05-23T15:02:02;9.00;;;2.03;;
17886;SDS011;9069;52.044;7.472;2023-05-23T15:04:29;8.15;;;1.90;;
17886;SDS011;9069;52.044;7.472;2023-05-23T15:06:57;9.02;;;2.20;;
17886;SDS011;9069;52.044;7.472;2023-05-23T15:09:24;5.55;;;2.15;;
17886;SDS011;9069;52.044;7.472;2023-05-23T15:11:51;6.90;;;2.15;;
17886;SDS011;9069;52.044;7.472;2023-05-23T15:14:18;6.45;;;2.03;;
17886;SDS011;9069;52.044;7.472;2023-05-23T15:16:47;7.72;;;2.13;;
17886;SDS011;9069;52.044;7.472;2023-05-23T15:19:15;10.82;;;2.33;;
17886;SDS011;9069;52.044;7.472;2023-05-23T15:21:42;7.88;;;2.17;;
17886;SDS011;9069;52.044;7.472;2023-05-23T15:24:16;5.28;;;1.90;;
17886;SDS011;9069;52.044;7.472;2023-05-23T15:26:43;7.18;;;1.85;;
17886;SDS011;9069;52.044;7.472;2023-05-23T15:29:10;6.88;;;1.80;;
17886;SDS011;9069;52.044;7.472;2023-05-23T15:31:38;7.95;;;1.95;;
17886;SDS011;9069;52.044;7.472;2023-05-23T15:34:05;6.57;;;1.70;;